Time;durP1;ratioP1;P1;durP2;ratioP2;P2;SDS_P1;SDS_P2;PMS_P1;PMS_P2;Temp;Humidity;BMP_temperature;BMP_pressure;BME280_temperature;BME280_humidity;BME280_pressure;Samples;Min_cycle;Max_cycle;Signal;HPM_P1;HPM_P2
2022/11/06 00:00:55;;;;;;;12.32;6.47;;;9.70;99.90;;;;;;5125999;27;20372;-79
2022/11/06 00:03:20;;;;;;;11.80;7.63;;;9.50;99.90;;;;;;5130734;27;20040;-79
2022/11/06 00:08:34;;;;;;;9.90;6.28;;;9.10;99.90;;;;;;5114945;27;20415;-79
2022/11/06 00:11:00;;;;;;;14.85;6.40;;;10.00;99.90;;;;;;5122998;27;20031;-79
2022/11/06 00:13:26;;;;;;;10.00;6.03;;;9.50;99.90;;;;;;5118524;27;20035;-79
2022/11/06 00:15:51;;;;;;;9.43;5.70;;;9.50;99.90;;;;;;5118063;27;20083;-79
2022/11/06 00:18:17;;;;;;;9.35;5.93;;;9.50;99.90;;;;;;5136762;27;20492;-79
2022/11/06 00:20:43;;;;;;;9.48;5.53;;;9.50;99.90;;;;;;5136588;27;20471;-79
2022/11/06 00:23:08;;;;;;;13.25;6.50;;;9.30;99.90;;;;;;5135136;27;20050;-79
2022/11/06 00:25:34;;;;;;;12.20;6.45;;;9.50;99.90;;;;;;5134436;27;20079;-79
2022/11/06 00:27:59;;;;;;;9.90;6.38;;;9.60;99.90;;;;;;5135831;27;20039;-79
2022/11/06 00:30:25;;;;;;;10.50;5.88;;;9.50;99.90;;;;;;5136737;27;20506;-79
2022/11/06 00:32:51;;;;;;;8.88;6.05;;;9.50;99.90;;;;;;5132780;27;20047;-79
2022/11/06 00:35:16;;;;;;;12.45;6.57;;;9.50;99.90;;;;;;5136977;27;20387;-79
2022/11/06 00:37:42;;;;;;;10.32;5.75;;;9.40;99.90;;;;;;5136557;27;20047;-79
2022/11/06 00:40:08;;;;;;;11.55;6.32;;;9.40;99.90;;;;;;5136484;27;20039;-79
2022/11/06 00:42:34;;;;;;;8.83;6.37;;;9.40;99.90;;;;;;5134666;27;20040;-79
2022/11/06 00:44:59;;;;;;;11.60;5.63;;;9.40;99.90;;;;;;5134955;27;20042;-79
2022/11/06 00:47:25;;;;;;;11.68;6.00;;;9.40;99.90;;;;;;5124899;27;20505;-79
2022/11/06 00:49:50;;;;;;;15.30;6.30;;;9.40;99.90;;;;;;5134701;27;20128;-79
2022/11/06 00:52:16;;;;;;;11.65;6.35;;;9.40;99.90;;;;;;5131148;27;20521;-79
2022/11/06 00:54:41;;;;;;;10.88;6.20;;;10.10;99.90;;;;;;5130892;27;20071;-79
2022/11/06 00:57:07;;;;;;;13.18;6.55;;;9.50;99.90;;;;;;5132038;27;20046;-79
2022/11/06 00:59:33;;;;;;;15.85;6.40;;;9.40;99.90;;;;;;5127746;27;20396;-79
2022/11/06 01:01:58;;;;;;;10.07;5.95;;;9.40;99.90;;;;;;5121765;27;20078;-79
2022/11/06 01:04:24;;;;;;;7.60;5.53;;;9.40;99.90;;;;;;5118180;27;20066;-79
2022/11/06 01:06:52;;;;;;;12.15;6.32;;;9.40;99.90;;;;;;5131668;27;20043;-79
2022/11/06 01:09:20;;;;;;;10.02;5.53;;;9.40;99.90;;;;;;5128051;27;20398;-79
2022/11/06 01:11:49;;;;;;;10.15;5.40;;;9.40;99.90;;;;;;5112730;27;20035;-79
2022/11/06 01:14:16;;;;;;;11.15;5.90;;;9.40;99.90;;;;;;5119859;27;20051;-79
2022/11/06 01:16:42;;;;;;;10.35;5.78;;;9.40;99.90;;;;;;5130309;27;20047;-79
2022/11/06 01:19:10;;;;;;;12.27;6.22;;;10.00;99.90;;;;;;5135083;27;20123;-79
2022/11/06 01:21:38;;;;;;;10.85;5.57;;;9.50;99.90;;;;;;5133633;27;20075;-79
2022/11/06 01:24:11;;;;;;;12.50;6.03;;;9.40;99.90;;;;;;5132954;27;20039;-79
2022/11/06 01:26:37;;;;;;;11.15;5.80;;;9.40;99.90;;;;;;5132834;27;20043;-79
2022/11/06 01:29:04;;;;;;;10.45;4.80;;;9.90;99.90;;;;;;5131216;27;20107;-79
2022/11/06 01:31:31;;;;;;;10.80;5.80;;;9.40;99.90;;;;;;5124977;27;20040;-79
2022/11/06 01:33:58;;;;;;;;;;;9.10;99.90;;;;;;5128127;27;20081;-79
2022/11/06 01:36:25;;;;;;;11.32;5.70;;;9.50;99.90;;;;;;5131217;27;20625;-79
2022/11/06 01:38:53;;;;;;;7.47;5.55;;;9.40;99.90;;;;;;5133579;27;20092;-79
2022/11/06 01:41:24;;;;;;;8.35;5.57;;;9.00;99.90;;;;;;5134500;27;20047;-79
2022/11/06 01:43:53;;;;;;;10.30;5.25;;;10.00;99.90;;;;;;5134488;27;20479;-79
2022/11/06 01:46:20;;;;;;;9.68;5.75;;;9.00;99.90;;;;;;5127137;27;20096;-79
2022/11/06 01:49:03;;;;;;;11.68;5.45;;;9.40;99.90;;;;;;5134254;27;20490;-80
2022/11/06 01:51:33;;;;;;;10.23;6.00;;;9.40;99.90;;;;;;5133093;27;20483;-79
2022/11/06 01:53:59;;;;;;;9.75;5.35;;;9.30;99.90;;;;;;5123570;27;20047;-79
2022/11/06 01:56:25;;;;;;;11.82;5.72;;;9.30;99.90;;;;;;5129985;27;20043;-79
2022/11/06 01:58:54;;;;;;;13.10;6.13;;;9.40;99.90;;;;;;5115088;27;20039;-79
2022/11/06 02:01:20;;;;;;;9.95;5.30;;;9.20;99.90;;;;;;5127277;27;20445;-79
2022/11/06 02:03:54;;;;;;;8.82;5.55;;;9.20;99.90;;;;;;5123696;27;20100;-79
2022/11/06 02:06:19;;;;;;;9.75;5.43;;;9.20;99.90;;;;;;5132223;27;20424;-78
2022/11/06 02:08:45;;;;;;;9.02;5.45;;;9.50;99.90;;;;;;5128369;27;20114;-78
2022/11/06 02:11:11;;;;;;;10.35;5.22;;;9.20;99.90;;;;;;5118712;27;20045;-78
2022/11/06 02:13:45;;;;;;;9.80;5.47;;;9.30;99.90;;;;;;5117281;28;20050;-78
2022/11/06 02:16:38;;;;;;;13.20;5.65;;;9.10;99.90;;;;;;5120561;27;20067;-79
2022/11/06 02:19:10;;;;;;;12.52;5.70;;;8.80;99.90;;;;;;5113997;28;20039;-79
2022/11/06 02:22:12;;;;;;;10.45;5.28;;;9.10;99.90;;;;;;5114165;28;20491;-79
2022/11/06 02:24:53;;;;;;;7.75;5.45;;;9.10;99.90;;;;;;5112653;28;20119;-79
2022/11/06 02:27:23;;;;;;;11.13;4.93;;;9.10;99.90;;;;;;5114528;28;20101;-79
2022/11/06 02:29:58;;;;;;;17.00;5.35;;;9.10;99.90;;;;;;5132452;28;20497;-79
2022/11/06 02:32:53;;;;;;;8.93;5.72;;;9.10;99.90;;;;;;5133501;28;20073;-78
2022/11/06 02:36:20;;;;;;;12.93;5.50;;;9.10;99.90;;;;;;5113063;28;20048;-79
2022/11/06 02:38:52;;;;;;;9.60;5.35;;;9.10;99.90;;;;;;5026281;28;20056;-79
2022/11/06 02:41:23;;;;;;;13.18;6.00;;;9.10;99.90;;;;;;5055072;28;20416;-78
2022/11/06 02:43:53;;;;;;;10.18;5.65;;;9.00;99.90;;;;;;5100488;27;20051;-79
2022/11/06 02:46:34;;;;;;;9.30;5.75;;;9.00;99.90;;;;;;5137676;27;20122;-78
2022/11/06 02:49:09;;;;;;;11.00;5.82;;;8.90;99.90;;;;;;5124362;27;20035;-79
2022/11/06 02:51:40;;;;;;;13.82;5.82;;;8.90;99.90;;;;;;5127758;27;20118;-79
2022/11/06 02:54:07;;;;;;;11.35;6.13;;;9.30;99.90;;;;;;5120748;27;20089;-79
2022/11/06 02:56:37;;;;;;;11.68;5.53;;;8.80;99.90;;;;;;5137804;27;20039;-79
2022/11/06 02:59:13;;;;;;;11.65;5.45;;;9.00;99.90;;;;;;5136121;27;20040;-78
2022/11/06 03:01:45;;;;;;;10.13;5.72;;;8.80;99.90;;;;;;5134329;27;20043;-78
2022/11/06 03:04:19;;;;;;;10.80;5.78;;;8.80;99.90;;;;;;5123257;27;20050;-79
2022/11/06 03:06:50;;;;;;;12.50;5.07;;;8.70;99.90;;;;;;5134073;27;20042;-79
2022/11/06 03:09:21;;;;;;;9.55;5.95;;;8.70;99.90;;;;;;5137542;27;20080;-78
2022/11/06 03:11:56;;;;;;;9.48;5.00;;;8.70;99.90;;;;;;5127771;27;20111;-79
2022/11/06 03:14:54;;;;;;;11.48;5.32;;;8.40;99.90;;;;;;5131111;27;20039;-78
2022/11/06 03:17:29;;;;;;;10.45;5.10;;;8.70;99.90;;;;;;5126884;27;20046;-78
2022/11/06 03:20:04;;;;;;;8.50;5.20;;;8.70;99.90;;;;;;5120628;27;20062;-78
2022/11/06 03:22:37;;;;;;;8.23;5.22;;;8.50;99.90;;;;;;5127213;27;20402;-78
2022/11/06 03:25:23;;;;;;;14.20;5.03;;;8.80;99.90;;;;;;5137423;27;20088;-79
2022/11/06 03:28:04;;;;;;;7.70;4.82;;;8.80;99.90;;;;;;5125827;27;20110;-79
2022/11/06 03:30:37;;;;;;;10.32;5.15;;;8.80;99.90;;;;;;5135170;27;20043;-79
2022/11/06 03:33:09;;;;;;;8.45;4.90;;;8.80;99.90;;;;;;5135542;27;20428;-79
2022/11/06 03:36:00;;;;;;;10.05;4.78;;;8.80;99.90;;;;;;5130670;27;20547;-79
2022/11/06 03:38:32;;;;;;;14.68;5.53;;;8.80;99.90;;;;;;5130352;27;20047;-79
2022/11/06 03:41:03;;;;;;;13.18;5.00;;;8.90;99.90;;;;;;5118043;27;20047;-79
2022/11/06 03:43:34;;;;;;;9.82;4.85;;;8.90;99.90;;;;;;5128627;27;20054;-78
2022/11/06 03:46:03;;;;;;;6.55;4.50;;;8.90;99.90;;;;;;5122809;27;20510;-79
2022/11/06 03:48:37;;;;;;;8.30;4.60;;;9.10;99.90;;;;;;5117140;27;20074;-79
2022/11/06 03:51:12;;;;;;;8.18;4.32;;;8.90;99.90;;;;;;5118640;27;20395;-79
2022/11/06 03:53:46;;;;;;;8.90;4.35;;;8.90;99.90;;;;;;5120482;27;20047;-79
2022/11/06 03:56:35;;;;;;;9.65;4.95;;;8.90;99.90;;;;;;5130183;27;20035;-79
2022/11/06 03:59:07;;;;;;;6.78;4.22;;;9.00;99.90;;;;;;5126960;27;20039;-78
2022/11/06 04:01:39;;;;;;;11.30;4.50;;;8.10;99.90;;;;;;5126258;27;20078;-78
2022/11/06 04:04:17;;;;;;;8.18;4.57;;;9.00;99.90;;;;;;5133058;27;20050;-79
2022/11/06 04:07:35;;;;;;;9.65;4.60;;;9.00;99.90;;;;;;5130461;27;20486;-79
2022/11/06 04:15:42;;;;;;;11.57;3.80;;;9.10;99.90;;;;;;5115683;27;20086;-78
2022/11/06 04:18:26;;;;;;;8.68;4.03;;;9.10;99.90;;;;;;5120207;27;20452;-78
2022/11/06 04:21:24;;;;;;;9.63;3.90;;;9.30;99.90;;;;;;5134584;27;20514;-79
2022/11/06 04:27:14;;;;;;;11.63;4.00;;;9.10;99.90;;;;;;5135595;27;20047;-78
2022/11/06 04:30:16;;;;;;;6.15;3.53;;;9.10;99.90;;;;;;5122485;27;20087;-79
2022/11/06 04:33:19;;;;;;;8.25;3.70;;;9.10;99.90;;;;;;5074171;28;20086;-78
2022/11/06 04:36:13;;;;;;;9.90;3.75;;;9.10;99.90;;;;;;5134993;27;20049;-78
2022/11/06 04:38:41;;;;;;;6.70;3.70;;;9.10;99.90;;;;;;5135946;27;20080;-78
2022/11/06 04:41:14;;;;;;;11.57;4.20;;;8.70;99.90;;;;;;5136604;27;20390;-78
2022/11/06 04:43:48;;;;;;;7.93;3.92;;;9.00;99.90;;;;;;5136430;27;20078;-79
2022/11/06 04:46:28;;;;;;;7.88;3.63;;;9.00;99.90;;;;;;5136533;27;20491;-78
2022/11/06 04:48:56;;;;;;;9.70;3.92;;;9.00;99.90;;;;;;5132677;27;20418;-78
2022/11/06 04:51:27;;;;;;;8.98;4.45;;;9.00;99.90;;;;;;5130179;27;20039;-78
2022/11/06 04:53:53;;;;;;;11.48;4.40;;;8.90;99.90;;;;;;5127728;27;20039;-78
2022/11/06 04:56:28;;;;;;;10.67;3.87;;;9.40;99.90;;;;;;5135382;27;20043;-78
2022/11/06 04:58:54;;;;;;;9.77;4.22;;;8.90;99.90;;;;;;5124795;27;20315;-78
2022/11/06 05:01:19;;;;;;;9.40;4.15;;;9.30;99.90;;;;;;5133980;27;20122;-78
2022/11/06 05:03:45;;;;;;;7.43;4.07;;;8.90;99.90;;;;;;5127186;27;20395;-79
2022/11/06 05:06:11;;;;;;;11.18;3.83;;;8.80;99.90;;;;;;5132552;27;20039;-78
2022/11/06 05:08:37;;;;;;;10.95;4.38;;;8.80;99.90;;;;;;5131493;27;20047;-78
2022/11/06 05:11:02;;;;;;;8.68;3.90;;;8.80;99.90;;;;;;5124768;27;20047;-78
2022/11/06 05:13:28;;;;;;;7.03;4.15;;;8.80;99.90;;;;;;5127469;27;20070;-78
2022/11/06 05:15:57;;;;;;;11.05;3.70;;;8.80;99.90;;;;;;5130375;27;20386;-78
2022/11/06 05:18:24;;;;;;;11.35;4.07;;;8.80;99.90;;;;;;5133314;27;20039;-78
2022/11/06 05:22:56;;;;;;;9.05;3.95;;;8.80;99.90;;;;;;5128530;27;20039;-78
2022/11/06 05:23:39;;;;;;;12.05;3.97;;;8.80;99.90;;;;;;5129417;27;20391;-78
2022/11/06 05:26:06;;;;;;;10.00;3.97;;;8.80;99.90;;;;;;5134721;27;20047;-78
2022/11/06 05:28:31;;;;;;;8.90;3.58;;;8.80;99.90;;;;;;5133476;27;20082;-78
2022/11/06 05:30:57;;;;;;;7.78;3.67;;;8.80;99.90;;;;;;5133839;27;20074;-78
2022/11/06 05:33:23;;;;;;;9.85;3.53;;;8.80;99.90;;;;;;5133613;27;20070;-79
2022/11/06 05:35:49;;;;;;;9.70;3.83;;;8.90;99.90;;;;;;5125270;27;20478;-78
2022/11/06 05:38:15;;;;;;;6.87;3.83;;;8.80;99.90;;;;;;5121765;27;20039;-78
2022/11/06 05:40:40;;;;;;;6.55;3.50;;;9.40;99.90;;;;;;5129801;27;20649;-78
2022/11/06 05:43:06;;;;;;;6.88;3.40;;;8.80;99.90;;;;;;5115083;27;20096;-78
2022/11/06 05:45:31;;;;;;;6.00;3.33;;;8.80;99.90;;;;;;5127795;27;20044;-78
2022/11/06 05:47:57;;;;;;;8.80;3.70;;;9.10;99.90;;;;;;5116388;27;20043;-78
2022/11/06 05:50:23;;;;;;;8.40;3.67;;;8.90;99.90;;;;;;5129763;27;20039;-78
2022/11/06 05:52:49;;;;;;;11.98;3.70;;;8.80;99.90;;;;;;5129555;27;20481;-78
2022/11/06 05:55:15;;;;;;;10.50;3.35;;;8.80;99.90;;;;;;5120959;27;20039;-78
2022/11/06 05:57:41;;;;;;;11.25;3.88;;;8.80;99.90;;;;;;5122666;27;20053;-78
2022/11/06 06:00:08;;;;;;;8.63;3.53;;;8.80;99.90;;;;;;5121122;27;20111;-78
2022/11/06 06:02:35;;;;;;;10.40;3.78;;;8.80;99.90;;;;;;5126374;27;20078;-78
2022/11/06 06:05:00;;;;;;;8.70;3.40;;;8.80;99.90;;;;;;5134471;27;20047;-78
2022/11/06 06:07:26;;;;;;;7.95;3.10;;;8.90;99.90;;;;;;5129260;27;20036;-78
2022/11/06 06:09:51;;;;;;;4.70;3.10;;;8.80;99.90;;;;;;5122810;27;20035;-78
2022/11/06 06:12:17;;;;;;;16.05;3.45;;;8.70;99.90;;;;;;5124676;27;20088;-78
2022/11/06 06:14:43;;;;;;;8.95;2.92;;;8.90;99.90;;;;;;5128954;27;20442;-82
2022/11/06 06:17:08;;;;;;;7.53;2.83;;;8.90;99.90;;;;;;5113429;28;20074;-85
2022/11/06 06:19:34;;;;;;;5.68;3.03;;;8.70;99.90;;;;;;5096282;28;20093;-79
2022/11/06 06:21:59;;;;;;;9.88;3.45;;;8.90;99.90;;;;;;5129627;27;20081;-81
2022/11/06 06:24:25;;;;;;;7.25;2.83;;;8.90;99.90;;;;;;5132843;27;20119;-81
2022/11/06 06:26:51;;;;;;;8.10;3.08;;;9.00;99.90;;;;;;5120197;28;20035;-78
2022/11/06 06:29:16;;;;;;;11.80;3.30;;;8.90;99.90;;;;;;5114301;28;20047;-79
2022/11/06 06:31:42;;;;;;;7.75;3.55;;;9.00;99.90;;;;;;5132835;28;20055;-80
2022/11/06 06:34:07;;;;;;;10.20;3.72;;;9.00;99.90;;;;;;5123145;28;20039;-78
2022/11/06 06:36:33;;;;;;;8.20;2.85;;;9.00;99.90;;;;;;5114721;28;20043;-78
2022/11/06 06:38:58;;;;;;;8.27;3.05;;;9.00;99.90;;;;;;5114195;28;20536;-79
2022/11/06 06:41:24;;;;;;;8.80;3.30;;;9.00;99.90;;;;;;5121979;28;20035;-78
2022/11/06 06:43:49;;;;;;;11.38;3.63;;;9.00;99.90;;;;;;5125044;28;20043;-79
2022/11/06 06:46:16;;;;;;;4.97;2.90;;;9.00;99.90;;;;;;5112777;28;20047;-79
2022/11/06 06:48:41;;;;;;;7.75;3.15;;;9.10;99.90;;;;;;5130981;28;20078;-78
2022/11/06 06:51:07;;;;;;;6.28;3.42;;;9.10;99.90;;;;;;5133412;28;20096;-81
2022/11/06 06:53:34;;;;;;;6.53;2.72;;;9.10;99.90;;;;;;5131094;27;20051;-78
2022/11/06 06:56:00;;;;;;;9.45;2.83;;;9.20;99.90;;;;;;5124932;28;20031;-79
2022/11/06 06:58:27;;;;;;;7.40;2.90;;;9.10;99.90;;;;;;5121435;28;20031;-80
2022/11/06 07:00:52;;;;;;;9.50;2.90;;;9.10;99.90;;;;;;5123186;27;20141;-79
2022/11/06 07:03:18;;;;;;;5.82;2.60;;;9.10;99.90;;;;;;5129775;28;20122;-80
2022/11/06 07:05:43;;;;;;;4.03;2.47;;;9.70;99.90;;;;;;5131285;28;20240;-78
2022/11/06 07:08:09;;;;;;;5.15;3.00;;;9.20;99.90;;;;;;5133596;28;20039;-81
2022/11/06 07:10:34;;;;;;;9.25;2.72;;;9.80;99.90;;;;;;5118519;28;20107;-79
2022/11/06 07:13:02;;;;;;;9.07;2.78;;;9.20;99.90;;;;;;5130825;28;20466;-76
2022/11/06 07:15:28;;;;;;;9.35;3.03;;;9.20;99.90;;;;;;5131397;27;20050;-76
2022/11/06 07:17:53;;;;;;;6.43;2.55;;;9.30;99.90;;;;;;5133119;28;20041;-78
2022/11/06 07:20:19;;;;;;;9.95;2.80;;;9.30;99.90;;;;;;5116018;28;20048;-81
2022/11/06 07:22:44;;;;;;;4.35;2.53;;;9.60;99.90;;;;;;5124561;28;20048;-80
2022/11/06 07:25:13;;;;;;;8.63;3.10;;;9.30;99.90;;;;;;5130265;27;20050;-83
2022/11/06 07:27:40;;;;;;;7.55;3.08;;;9.30;99.90;;;;;;5122872;27;20047;-80
2022/11/06 07:30:06;;;;;;;6.13;2.72;;;9.40;99.90;;;;;;5119168;27;20091;-83
2022/11/06 07:32:32;;;;;;;6.65;2.53;;;9.40;99.90;;;;;;5102400;28;20074;-77
2022/11/06 07:34:57;;;;;;;8.90;2.50;;;9.40;99.90;;;;;;5115684;27;20489;-80
2022/11/06 07:37:23;;;;;;;5.57;2.50;;;9.40;99.90;;;;;;5121631;27;20118;-73
2022/11/06 07:39:48;;;;;;;7.82;2.60;;;9.50;99.90;;;;;;5117810;27;20047;-75
2022/11/06 07:42:14;;;;;;;10.00;2.85;;;9.50;99.90;;;;;;5134076;27;20043;-77
2022/11/06 07:44:40;;;;;;;7.38;2.67;;;9.50;99.90;;;;;;5134583;27;20047;-77
2022/11/06 07:47:05;;;;;;;5.20;2.58;;;9.50;99.90;;;;;;5121870;27;20467;-77
2022/11/06 07:49:31;;;;;;;4.35;2.60;;;9.60;99.90;;;;;;5125553;27;20084;-79
2022/11/06 07:51:56;;;;;;;6.05;2.50;;;9.10;99.90;;;;;;5136945;27;20399;-76
2022/11/06 07:54:22;;;;;;;4.20;2.30;;;10.20;99.90;;;;;;5137572;27;20079;-80
2022/11/06 07:56:48;;;;;;;4.13;2.60;;;9.70;99.90;;;;;;5129042;27;20066;-80
2022/11/06 07:59:13;;;;;;;8.77;2.58;;;9.70;99.90;;;;;;5117187;28;20036;-76
2022/11/06 08:01:39;;;;;;;10.10;2.80;;;9.50;99.90;;;;;;5131887;27;20394;-77
2022/11/06 08:04:04;;;;;;;5.07;2.85;;;10.40;99.90;;;;;;5124751;27;20075;-81
2022/11/06 08:06:30;;;;;;;4.95;2.20;;;9.80;99.90;;;;;;5125271;27;20061;-76
2022/11/06 08:08:55;;;;;;;7.45;2.67;;;10.20;99.90;;;;;;5136045;27;20031;-79
2022/11/06 08:11:21;;;;;;;8.30;2.75;;;9.80;99.90;;;;;;5131983;27;20188;-76
2022/11/06 08:13:46;;;;;;;6.80;2.38;;;9.90;99.90;;;;;;5134907;27;20462;-80
2022/11/06 08:16:13;;;;;;;8.27;2.97;;;9.90;99.90;;;;;;5133801;27;20062;-77
2022/11/06 08:18:39;;;;;;;5.25;2.55;;;10.00;99.90;;;;;;5132937;27;20043;-78
2022/11/06 08:21:06;;;;;;;5.07;2.22;;;10.00;99.90;;;;;;5137008;27;20043;-76
2022/11/06 08:23:32;;;;;;;7.60;3.08;;;10.10;99.90;;;;;;5130921;27;20051;-80
2022/11/06 08:26:00;;;;;;;7.70;2.60;;;10.10;99.90;;;;;;5130788;27;20201;-78
2022/11/06 08:28:27;;;;;;;7.50;2.20;;;10.20;99.90;;;;;;5135573;27;20043;-76
2022/11/06 08:30:53;;;;;;;8.52;2.60;;;10.20;99.90;;;;;;5134579;27;20058;-78
2022/11/06 08:33:23;;;;;;;7.35;2.53;;;10.30;99.90;;;;;;5136824;27;20043;-76
2022/11/06 08:35:48;;;;;;;6.82;2.35;;;10.70;99.90;;;;;;5125949;27;20126;-79
2022/11/06 08:38:15;;;;;;;6.93;2.55;;;10.50;99.90;;;;;;5116471;27;20127;-78
2022/11/06 08:40:40;;;;;;;6.85;2.15;;;10.30;99.90;;;;;;5098058;28;20130;-77
2022/11/06 08:43:09;;;;;;;5.82;3.05;;;10.90;99.90;;;;;;5114759;28;20126;-79
2022/11/06 08:45:39;;;;;;;11.70;2.75;;;10.40;99.90;;;;;;5115490;28;20524;-77
2022/11/06 08:48:06;;;;;;;6.18;2.83;;;10.40;99.90;;;;;;5122671;27;20035;-78
2022/11/06 08:50:33;;;;;;;8.88;2.80;;;10.50;99.90;;;;;;5127573;27;20110;-82
2022/11/06 08:53:02;;;;;;;7.13;3.03;;;10.40;99.90;;;;;;5114664;28;20047;-79
2022/11/06 08:55:29;;;;;;;8.23;2.85;;;10.50;99.90;;;;;;5120050;27;20532;-79
2022/11/06 08:57:54;;;;;;;8.10;2.60;;;10.50;99.90;;;;;;5129889;27;20058;-79
2022/11/06 09:00:20;;;;;;;10.43;2.97;;;10.60;99.90;;;;;;5101786;28;20139;-77
2022/11/06 09:02:46;;;;;;;4.15;2.72;;;10.70;99.90;;;;;;5134055;27;20079;-85
2022/11/06 09:05:11;;;;;;;5.40;2.63;;;10.70;99.90;;;;;;5123590;27;20039;-80
2022/11/06 09:07:37;;;;;;;8.93;2.70;;;10.80;99.90;;;;;;5128939;27;20066;-81
2022/11/06 09:10:03;;;;;;;5.45;2.30;;;10.90;99.90;;;;;;5116455;27;20130;-85
2022/11/06 09:12:29;;;;;;;7.93;2.67;;;10.90;99.90;;;;;;5128645;27;20051;-85
2022/11/06 09:14:54;;;;;;;9.55;2.65;;;11.00;99.90;;;;;;5118953;27;20036;-73
2022/11/06 09:17:22;;;;;;;7.82;2.70;;;11.00;99.90;;;;;;5127005;27;20050;-72
2022/11/06 09:19:51;;;;;;;8.13;2.72;;;11.00;99.90;;;;;;5135681;27;20062;-70
2022/11/06 09:22:17;;;;;;;6.32;2.92;;;10.90;99.90;;;;;;5133503;27;20558;-80
2022/11/06 09:24:43;;;;;;;7.40;3.00;;;11.00;99.90;;;;;;5135703;27;20047;-78
2022/11/06 09:27:09;;;;;;;6.85;2.63;;;10.90;99.90;;;;;;5129453;27;20380;-75
2022/11/06 09:29:34;;;;;;;13.20;2.90;;;11.00;99.90;;;;;;5124991;27;20050;-81
2022/11/06 09:32:00;;;;;;;4.50;2.90;;;11.00;99.90;;;;;;5135414;27;20127;-78
2022/11/06 09:34:26;;;;;;;6.13;2.85;;;11.00;99.90;;;;;;5122860;27;20039;-76
2022/11/06 09:36:51;;;;;;;7.75;2.60;;;10.80;99.90;;;;;;5135432;27;20413;-79
2022/11/06 09:39:17;;;;;;;4.68;2.70;;;11.40;99.90;;;;;;5111958;27;20100;-76
2022/11/06 09:41:53;;;;;;;5.68;2.65;;;11.20;99.90;;;;;;5119437;27;20043;-79
2022/11/06 09:44:55;;;;;;;7.03;2.85;;;11.50;99.90;;;;;;5129475;27;20072;-77
2022/11/06 09:47:27;;;;;;;5.65;2.20;;;11.20;99.90;;;;;;5122928;27;20057;-79
2022/11/06 09:49:55;;;;;;;5.32;2.90;;;11.20;99.90;;;;;;5127145;27;20044;-77
2022/11/06 09:52:33;;;;;;;10.00;2.63;;;11.20;99.90;;;;;;5125503;27;20060;-76
2022/11/06 09:55:25;;;;;;;5.20;2.83;;;11.20;99.90;;;;;;5134699;27;20061;-82
2022/11/06 09:58:01;;;;;;;6.15;2.63;;;11.20;99.90;;;;;;5118673;27;20042;-77
2022/11/06 10:00:26;;;;;;;6.72;2.33;;;11.30;99.90;;;;;;5119364;27;20044;-78
2022/11/06 10:03:29;;;;;;;6.53;2.50;;;11.30;99.90;;;;;;5127256;27;20231;-78
2022/11/06 10:05:55;;;;;;;10.85;2.60;;;11.30;99.90;;;;;;5117558;27;20035;-77
2022/11/06 10:08:27;;;;;;;5.40;2.70;;;11.40;99.90;;;;;;5129064;27;20047;-76
2022/11/06 10:11:12;;;;;;;5.30;2.40;;;11.40;99.90;;;;;;5127835;27;20065;-76
2022/11/06 10:14:07;;;;;;;4.63;2.25;;;11.40;99.90;;;;;;5126612;27;20039;-78
2022/11/06 10:16:54;;;;;;;5.35;2.33;;;11.00;99.90;;;;;;5105105;28;20495;-76
2022/11/06 10:19:44;;;;;;;5.57;2.33;;;11.40;99.90;;;;;;5122509;27;20040;-78
2022/11/06 10:22:14;;;;;;;5.20;2.42;;;11.50;99.90;;;;;;5117174;27;20118;-82
2022/11/06 10:24:53;;;;;;;10.32;2.70;;;11.60;99.90;;;;;;5114740;28;20036;-77
2022/11/06 10:27:32;;;;;;;5.20;2.20;;;11.70;99.90;;;;;;5116048;28;20434;-79
2022/11/06 10:30:02;;;;;;;8.05;2.72;;;11.80;99.90;;;;;;5124788;27;20097;-81
2022/11/06 10:32:42;;;;;;;2.85;1.85;;;11.90;99.90;;;;;;5123756;28;20460;-77
2022/11/06 10:35:14;;;;;;;4.18;2.55;;;12.10;99.90;;;;;;5125280;27;20047;-76
2022/11/06 10:37:47;;;;;;;6.45;2.10;;;12.20;99.90;;;;;;5123142;28;20173;-75
2022/11/06 10:40:20;;;;;;;8.10;2.45;;;12.20;99.90;;;;;;5125561;28;20417;-77
2022/11/06 10:43:17;;;;;;;6.55;2.20;;;12.40;99.90;;;;;;5117236;28;20047;-78
2022/11/06 10:45:48;;;;;;;5.95;2.25;;;12.40;99.90;;;;;;5132094;28;20043;-78
2022/11/06 10:48:28;;;;;;;4.55;2.72;;;12.40;99.90;;;;;;5122914;28;20534;-78
2022/11/06 10:51:19;;;;;;;4.60;2.03;;;12.50;99.90;;;;;;5117274;28;20047;-78
2022/11/06 10:53:56;;;;;;;7.18;2.33;;;12.50;99.90;;;;;;5129488;28;20047;-81
2022/11/06 10:56:52;;;;;;;5.65;1.90;;;12.40;99.90;;;;;;5114497;28;20088;-77
2022/11/06 10:59:18;;;;;;;5.10;2.17;;;12.40;99.90;;;;;;5111172;27;20054;-85
2022/11/06 11:01:44;;;;;;;6.30;2.13;;;12.50;99.90;;;;;;5104002;27;20127;-76
2022/11/06 11:04:10;;;;;;;7.05;1.90;;;12.40;99.90;;;;;;5129196;27;20127;-76
2022/11/06 11:06:38;;;;;;;3.78;1.70;;;12.40;99.90;;;;;;5122402;27;20483;-76
2022/11/06 11:09:31;;;;;;;5.50;2.03;;;12.50;99.90;;;;;;5120579;27;20126;-78
2022/11/06 11:11:57;;;;;;;8.52;1.90;;;12.50;99.90;;;;;;5119133;27;20044;-76
2022/11/06 11:14:26;;;;;;;4.97;1.65;;;12.60;99.90;;;;;;5125723;27;20073;-76
2022/11/06 11:16:53;;;;;;;3.97;1.80;;;12.90;99.90;;;;;;5124025;27;20139;-79
2022/11/06 11:19:26;;;;;;;3.55;1.70;;;13.10;99.90;;;;;;5124948;27;20044;-78
2022/11/06 11:21:57;;;;;;;4.40;1.67;;;13.20;99.90;;;;;;5122975;27;20047;-76
2022/11/06 11:24:24;;;;;;;4.93;1.80;;;13.40;99.90;;;;;;5125099;27;20054;-76
2022/11/06 11:27:05;;;;;;;5.47;2.05;;;13.50;99.90;;;;;;5120207;27;20067;-78
2022/11/06 11:29:51;;;;;;;7.85;1.77;;;13.50;99.90;;;;;;5124504;27;20060;-77
2022/11/06 11:32:19;;;;;;;5.18;1.63;;;13.50;99.90;;;;;;5123275;27;20108;-77
2022/11/06 11:34:48;;;;;;;3.88;1.80;;;13.20;99.90;;;;;;5126862;27;20095;-77
2022/11/06 11:37:35;;;;;;;6.22;1.95;;;13.50;99.90;;;;;;5122165;27;20119;-79
2022/11/06 11:40:20;;;;;;;5.53;1.60;;;13.40;99.90;;;;;;5135919;27;20050;-77
2022/11/06 11:42:45;;;;;;;5.68;1.83;;;13.30;99.90;;;;;;5115806;28;20126;-82
2022/11/06 11:45:14;;;;;;;3.53;1.80;;;13.10;99.90;;;;;;5135300;27;20043;-79
2022/11/06 11:47:50;;;;;;;6.75;1.70;;;13.10;99.90;;;;;;5133438;27;20420;-78
2022/11/06 11:50:18;;;;;;;5.05;1.60;;;13.10;99.90;;;;;;5128309;27;20118;-73
2022/11/06 11:52:47;;;;;;;4.25;1.80;;;13.10;99.90;;;;;;5136587;27;20047;-76
2022/11/06 11:55:18;;;;;;;6.03;2.00;;;13.10;99.90;;;;;;5131545;27;20175;-81
2022/11/06 11:57:47;;;;;;;4.93;1.80;;;13.10;99.90;;;;;;5117500;27;20084;-80
2022/11/06 12:00:18;;;;;;;4.97;2.10;;;13.10;99.90;;;;;;5116094;27;20035;-77
2022/11/06 12:02:51;;;;;;;5.25;1.88;;;12.90;99.90;;;;;;5121079;27;20402;-75
2022/11/06 12:05:22;;;;;;;4.05;1.80;;;12.90;99.90;;;;;;5122548;27;20107;-75
2022/11/06 12:07:53;;;;;;;5.50;1.92;;;12.80;99.90;;;;;;5128582;27;20486;-74
2022/11/06 12:10:36;;;;;;;5.22;1.92;;;12.90;99.90;;;;;;5120287;27;20047;-73
2022/11/06 12:13:13;;;;;;;5.55;1.75;;;12.80;99.90;;;;;;5130542;27;20046;-75
2022/11/06 12:15:44;;;;;;;;;;;12.90;99.90;;;;;;5129188;27;20081;-78
2022/11/06 12:18:32;;;;;;;3.10;1.75;;;12.90;99.90;;;;;;5126810;27;19923;-76
2022/11/06 12:21:16;;;;;;;;;;;12.90;99.90;;;;;;5129337;27;20101;-79
2022/11/06 12:23:56;;;;;;;6.63;2.45;;;12.90;99.90;;;;;;5135019;27;19919;-78
2022/11/06 12:26:37;;;;;;;6.82;2.30;;;13.00;99.90;;;;;;5107117;27;20046;-78
2022/11/06 12:29:22;;;;;;;9.30;1.90;;;13.00;99.90;;;;;;5132613;27;20055;-81
2022/11/06 12:32:22;;;;;;;5.05;1.95;;;12.80;99.90;;;;;;5124659;27;20043;-82
2022/11/06 12:35:04;;;;;;;4.93;2.10;;;13.00;99.90;;;;;;5118707;27;20056;-83
2022/11/06 12:37:41;;;;;;;4.40;1.90;;;13.10;99.90;;;;;;5119423;27;20086;-81
2022/11/06 12:40:21;;;;;;;;;;;13.30;99.90;;;;;;5112498;28;20411;-84
2022/11/06 12:43:14;;;;;;;4.30;1.70;;;13.30;99.90;;;;;;5095336;28;19926;-82
2022/11/06 12:46:08;;;;;;;3.85;1.63;;;13.30;99.90;;;;;;5118784;27;20430;-78
2022/11/06 12:48:57;;;;;;;7.18;1.98;;;13.20;99.90;;;;;;5123096;27;20673;-82
2022/11/06 12:51:29;;;;;;;6.18;1.88;;;13.10;99.90;;;;;;5111486;27;20047;-77
2022/11/06 12:54:17;;;;;;;3.40;1.70;;;13.00;99.90;;;;;;5113670;27;20532;-76
2022/11/06 12:56:58;;;;;;;;;;;12.90;99.90;;;;;;5112114;28;20108;-76
2022/11/06 12:59:40;;;;;;;6.47;2.00;;;12.90;99.90;;;;;;5123172;27;20748;-76
2022/11/06 13:02:23;;;;;;;5.63;1.77;;;12.80;99.90;;;;;;5125293;27;20043;-79
2022/11/06 13:05:29;;;;;;;4.32;1.70;;;12.80;99.90;;;;;;5120866;27;20151;-77
2022/11/06 13:08:04;;;;;;;4.40;1.90;;;12.80;99.90;;;;;;5119198;27;20065;-82
2022/11/06 13:10:42;;;;;;;6.28;1.95;;;12.80;99.90;;;;;;5115569;27;20046;-79
2022/11/06 13:13:14;;;;;;;6.75;2.17;;;12.80;99.90;;;;;;5112702;27;20145;-81
2022/11/06 13:15:53;;;;;;;8.52;2.17;;;12.70;99.90;;;;;;5130341;27;20129;-79
2022/11/06 13:18:34;;;;;;;3.60;1.70;;;12.70;99.90;;;;;;5098151;27;20078;-83
2022/11/06 13:21:07;;;;;;;3.53;1.45;;;12.60;99.90;;;;;;5133075;27;20486;-78
2022/11/06 13:23:41;;;;;;;7.57;2.47;;;12.70;99.90;;;;;;5110814;27;20190;-79
2022/11/06 13:26:21;;;;;;;2.97;1.73;;;12.70;99.90;;;;;;5114826;27;20062;-82